sensor_id;sensor_type;location;lat;lon;timestamp;temperature;humidity
16829;DHT22;8531;48.078;11.968;2023-07-29T00:00:43;17.60;99.90
16829;DHT22;8531;48.078;11.968;2023-07-29T00:03:09;17.60;99.90
16829;DHT22;8531;48.078;11.968;2023-07-29T00:05:38;17.60;99.90
16829;DHT22;8531;48.078;11.968;2023-07-29T00:08:05;17.60;99.90
16829;DHT22;8531;48.078;11.968;2023-07-29T00:10:37;17.60;99.90
16829;DHT22;8531;48.078;11.968;2023-07-29T00:13:04;17.60;99.90
16829;DHT22;8531;48.078;11.968;2023-07-29T00:15:30;17.60;99.90
16829;DHT22;8531;48.078;11.968;2023-07-29T00:17:56;17.60;99.90
16829;DHT22;8531;48.078;11.968;2023-07-29T00:20:22;17.50;99.90
16829;DHT22;8531;48.078;11.968;2023-07-29T00:22:47;17.60;99.90
16829;DHT22;8531;48.078;11.968;2023-07-29T00:25:18;17.50;99.90
16829;DHT22;8531;48.078;11.968;2023-07-29T00:27:44;17.50;99.90
16829;DHT22;8531;48.078;11.968;2023-07-29T00:30:10;17.50;99.90
16829;DHT22;8531;48.078;11.968;2023-07-29T00:32:35;17.50;99.90
16829;DHT22;8531;48.078;11.968;2023-07-29T00:35:02;17.50;99.90
16829;DHT22;8531;48.078;11.968;2023-07-29T00:37:29;17.50;99.90
16829;DHT22;8531;48.078;11.968;2023-07-29T00:39:55;17.40;99.90
16829;DHT22;8531;48.078;11.968;2023-07-29T00:42:21;17.20;99.90
16829;DHT22;8531;48.078;11.968;2023-07-29T00:44:47;17.10;99.90
16829;DHT22;8531;48.078;11.968;2023-07-29T00:47:12;17.00;99.90
16829;DHT22;8531;48.078;11.968;2023-07-29T00:49:40;17.00;99.90
16829;DHT22;8531;48.078;11.968;2023-07-29T00:52:06;16.90;99.90
16829;DHT22;8531;48.078;11.968;2023-07-29T00:54:32;17.00;99.90
16829;DHT22;8531;48.078;11.968;2023-07-29T00:56:58;16.90;99.90
16829;DHT22;8531;48.078;11.968;2023-07-29T00:59:23;16.90;99.90
16829;DHT22;8531;48.078;11.968;2023-07-29T01:01:49;16.90;99.90
16829;DHT22;8531;48.078;11.968;2023-07-29T01:04:15;16.90;99.90
16829;DHT22;8531;48.078;11.968;2023-07-29T01:07:02;16.90;99.90
16829;DHT22;8531;48.078;11.968;2023-07-29T01:12:08;17.00;99.90
16829;DHT22;8531;48.078;11.968;2023-07-29T01:17:13;17.00;99.90
16829;DHT22;8531;48.078;11.968;2023-07-29T01:22:26;17.20;99.90
16829;DHT22;8531;48.078;11.968;2023-07-29T01:24:53;17.20;99.90
16829;DHT22;8531;48.078;11.968;2023-07-29T01:27:18;17.20;99.90
16829;DHT22;8531;48.078;11.968;2023-07-29T01:29:44;17.20;99.90
16829;DHT22;8531;48.078;11.968;2023-07-29T01:32:17;17.20;99.90
16829;DHT22;8531;48.078;11.968;2023-07-29T01:35:03;17.20;99.90
16829;DHT22;8531;48.078;11.968;2023-07-29T01:37:35;17.10;99.90
16829;DHT22;8531;48.078;11.968;2023-07-29T01:40:04;17.20;99.90
16829;DHT22;8531;48.078;11.968;2023-07-29T01:42:30;17.10;99.90
16829;DHT22;8531;48.078;11.968;2023-07-29T01:44:56;17.00;99.90
16829;DHT22;8531;48.078;11.968;2023-07-29T01:47:22;17.00;99.90
16829;DHT22;8531;48.078;11.968;2023-07-29T01:49:48;17.00;99.90
16829;DHT22;8531;48.078;11.968;2023-07-29T01:52:14;17.00;99.90
16829;DHT22;8531;48.078;11.968;2023-07-29T01:54:39;16.90;99.90
16829;DHT22;8531;48.078;11.968;2023-07-29T01:57:05;16.90;99.90
16829;DHT22;8531;48.078;11.968;2023-07-29T01:59:31;16.90;99.90
16829;DHT22;8531;48.078;11.968;2023-07-29T02:01:56;16.90;99.90
16829;DHT22;8531;48.078;11.968;2023-07-29T02:04:22;16.80;99.90
16829;DHT22;8531;48.078;11.968;2023-07-29T02:06:47;16.80;99.90
16829;DHT22;8531;48.078;11.968;2023-07-29T02:09:13;16.80;99.90
16829;DHT22;8531;48.078;11.968;2023-07-29T02:11:39;16.80;99.90
16829;DHT22;8531;48.078;11.968;2023-07-29T02:14:04;16.80;99.90
16829;DHT22;8531;48.078;11.968;2023-07-29T02:16:30;16.70;99.90
16829;DHT22;8531;48.078;11.968;2023-07-29T02:18:58;16.70;99.90
16829;DHT22;8531;48.078;11.968;2023-07-29T02:21:23;16.60;99.90
16829;DHT22;8531;48.078;11.968;2023-07-29T02:23:49;16.60;99.90
16829;DHT22;8531;48.078;11.968;2023-07-29T02:26:15;16.60;99.90
16829;DHT22;8531;48.078;11.968;2023-07-29T02:28:41;16.60;99.90
16829;DHT22;8531;48.078;11.968;2023-07-29T02:31:19;16.60;99.90
16829;DHT22;8531;48.078;11.968;2023-07-29T02:33:45;16.60;99.90
16829;DHT22;8531;48.078;11.968;2023-07-29T02:36:12;16.50;99.90
16829;DHT22;8531;48.078;11.968;2023-07-29T02:38:39;16.50;99.90
16829;DHT22;8531;48.078;11.968;2023-07-29T02:41:04;16.60;99.90
16829;DHT22;8531;48.078;11.968;2023-07-29T02:43:30;16.60;99.90
16829;DHT22;8531;48.078;11.968;2023-07-29T02:45:56;16.50;99.90
16829;DHT22;8531;48.078;11.968;2023-07-29T02:48:21;16.50;99.90
16829;DHT22;8531;48.078;11.968;2023-07-29T02:50:47;16.40;99.90
16829;DHT22;8531;48.078;11.968;2023-07-29T02:53:12;16.50;99.90
16829;DHT22;8531;48.078;11.968;2023-07-29T02:55:41;16.60;99.90
16829;DHT22;8531;48.078;11.968;2023-07-29T02:58:07;16.50;99.90
16829;DHT22;8531;48.078;11.968;2023-07-29T03:00:33;16.40;99.90
16829;DHT22;8531;48.078;11.968;2023-07-29T03:02:59;16.40;99.90
16829;DHT22;8531;48.078;11.968;2023-07-29T03:05:27;16.40;99.90
16829;DHT22;8531;48.078;11.968;2023-07-29T03:07:53;16.50;99.90
16829;DHT22;8531;48.078;11.968;2023-07-29T03:10:19;16.40;99.90
16829;DHT22;8531;48.078;11.968;2023-07-29T03:12:46;16.50;99.90
16829;DHT22;8531;48.078;11.968;2023-07-29T03:15:12;16.50;99.90
16829;DHT22;8531;48.078;11.968;2023-07-29T03:17:38;16.40;99.90
16829;DHT22;8531;48.078;11.968;2023-07-29T03:20:04;16.40;99.90
16829;DHT22;8531;48.078;11.968;2023-07-29T03:22:30;16.50;99.90
16829;DHT22;8531;48.078;11.968;2023-07-29T03:24:56;16.50;99.90
16829;DHT22;8531;48.078;11.968;2023-07-29T03:27:21;16.40;99.90
16829;DHT22;8531;48.078;11.968;2023-07-29T03:29:47;16.40;99.90
16829;DHT22;8531;48.078;11.968;2023-07-29T03:32:13;16.40;99.90
16829;DHT22;8531;48.078;11.968;2023-07-29T03:34:38;16.50;99.90
16829;DHT22;8531;48.078;11.968;2023-07-29T03:37:05;16.50;99.90
16829;DHT22;8531;48.078;11.968;2023-07-29T03:39:31;16.50;99.90
16829;DHT22;8531;48.078;11.968;2023-07-29T03:41:58;16.50;99.90
16829;DHT22;8531;48.078;11.968;2023-07-29T03:44:24;16.50;99.90
16829;DHT22;8531;48.078;11.968;2023-07-29T03:46:49;16.50;99.90
16829;DHT22;8531;48.078;11.968;2023-07-29T03:49:15;16.50;99.90
16829;DHT22;8531;48.078;11.968;2023-07-29T03:51:41;16.60;99.90
16829;DHT22;8531;48.078;11.968;2023-07-29T03:54:06;16.50;99.90
16829;DHT22;8531;48.078;11.968;2023-07-29T03:56:32;16.50;99.90
16829;DHT22;8531;48.078;11.968;2023-07-29T03:59:05;16.40;99.90
16829;DHT22;8531;48.078;11.968;2023-07-29T04:01:31;16.40;99.90
16829;DHT22;8531;48.078;11.968;2023-07-29T04:03:57;16.40;99.90
16829;DHT22;8531;48.078;11.968;2023-07-29T04:06:23;16.30;99.90
16829;DHT22;8531;48.078;11.968;2023-07-29T04:08:49;16.40;99.90
16829;DHT22;8531;48.078;11.968;2023-07-29T04:11:15;16.40;99.90
16829;DHT22;8531;48.078;11.968;2023-07-29T04:13:40;16.50;99.90
16829;DHT22;8531;48.078;11.968;2023-07-29T04:16:07;16.50;99.90
16829;DHT22;8531;48.078;11.968;2023-07-29T04:18:33;16.50;99.90
16829;DHT22;8531;48.078;11.968;2023-07-29T04:20:58;16.50;99.90
16829;DHT22;8531;48.078;11.968;2023-07-29T04:23:24;16.50;99.90
16829;DHT22;8531;48.078;11.968;2023-07-29T04:25:50;16.70;99.90
16829;DHT22;8531;48.078;11.968;2023-07-29T04:28:16;16.70;99.90
16829;DHT22;8531;48.078;11.968;2023-07-29T04:30:42;16.70;99.90
16829;DHT22;8531;48.078;11.968;2023-07-29T04:33:07;16.70;99.90
16829;DHT22;8531;48.078;11.968;2023-07-29T04:35:33;16.70;99.90
16829;DHT22;8531;48.078;11.968;2023-07-29T04:37:59;16.70;99.90
16829;DHT22;8531;48.078;11.968;2023-07-29T04:40:24;16.70;99.90
16829;DHT22;8531;48.078;11.968;2023-07-29T04:42:51;16.70;99.90
16829;DHT22;8531;48.078;11.968;2023-07-29T04:45:17;16.60;99.90
16829;DHT22;8531;48.078;11.968;2023-07-29T04:47:42;16.60;99.90
16829;DHT22;8531;48.078;11.968;2023-07-29T04:50:08;16.60;99.90
16829;DHT22;8531;48.078;11.968;2023-07-29T04:52:34;16.60;99.90
16829;DHT22;8531;48.078;11.968;2023-07-29T04:55:00;16.60;99.90
16829;DHT22;8531;48.078;11.968;2023-07-29T04:57:25;16.50;99.90
16829;DHT22;8531;48.078;11.968;2023-07-29T04:59:51;16.60;99.90
16829;DHT22;8531;48.078;11.968;2023-07-29T05:02:17;16.50;99.90
16829;DHT22;8531;48.078;11.968;2023-07-29T05:04:42;16.50;99.90
16829;DHT22;8531;48.078;11.968;2023-07-29T05:07:08;16.60;99.90
16829;DHT22;8531;48.078;11.968;2023-07-29T05:09:34;16.70;99.90
16829;DHT22;8531;48.078;11.968;2023-07-29T05:12:00;16.80;99.90
16829;DHT22;8531;48.078;11.968;2023-07-29T05:14:26;16.90;99.90
16829;DHT22;8531;48.078;11.968;2023-07-29T05:16:51;17.00;99.90
16829;DHT22;8531;48.078;11.968;2023-07-29T05:19:17;17.20;99.90
16829;DHT22;8531;48.078;11.968;2023-07-29T05:21:43;17.10;99.90
16829;DHT22;8531;48.078;11.968;2023-07-29T05:24:09;17.20;99.90
16829;DHT22;8531;48.078;11.968;2023-07-29T05:26:34;17.20;99.90
16829;DHT22;8531;48.078;11.968;2023-07-29T05:29:00;17.20;99.90
16829;DHT22;8531;48.078;11.968;2023-07-29T05:31:26;17.20;99.90
16829;DHT22;8531;48.078;11.968;2023-07-29T05:33:51;17.30;99.90
16829;DHT22;8531;48.078;11.968;2023-07-29T05:36:17;17.30;99.90
16829;DHT22;8531;48.078;11.968;2023-07-29T05:38:43;17.40;99.90
16829;DHT22;8531;48.078;11.968;2023-07-29T05:41:08;17.40;99.90
16829;DHT22;8531;48.078;11.968;2023-07-29T05:43:34;17.50;99.90
16829;DHT22;8531;48.078;11.968;2023-07-29T05:46:00;17.50;99.90
16829;DHT22;8531;48.078;11.968;2023-07-29T05:48:25;17.60;99.90
16829;DHT22;8531;48.078;11.968;2023-07-29T05:50:51;17.60;99.90
16829;DHT22;8531;48.078;11.968;2023-07-29T05:53:16;17.60;99.90
16829;DHT22;8531;48.078;11.968;2023-07-29T05:55:42;17.60;99.90
16829;DHT22;8531;48.078;11.968;2023-07-29T05:58:08;17.70;99.90
16829;DHT22;8531;48.078;11.968;2023-07-29T06:00:34;17.70;99.90
16829;DHT22;8531;48.078;11.968;2023-07-29T06:03:00;17.80;99.90
16829;DHT22;8531;48.078;11.968;2023-07-29T06:05:26;17.90;99.90
16829;DHT22;8531;48.078;11.968;2023-07-29T06:07:51;18.00;99.90
16829;DHT22;8531;48.078;11.968;2023-07-29T06:10:17;18.00;99.90
16829;DHT22;8531;48.078;11.968;2023-07-29T06:12:44;18.10;99.90
16829;DHT22;8531;48.078;11.968;2023-07-29T06:15:10;18.10;99.90
16829;DHT22;8531;48.078;11.968;2023-07-29T06:17:37;18.10;99.90
16829;DHT22;8531;48.078;11.968;2023-07-29T06:20:03;18.20;99.90
16829;DHT22;8531;48.078;11.968;2023-07-29T06:22:29;18.20;99.90
16829;DHT22;8531;48.078;11.968;2023-07-29T06:24:55;18.30;99.90
16829;DHT22;8531;48.078;11.968;2023-07-29T06:27:20;18.30;99.90
16829;DHT22;8531;48.078;11.968;2023-07-29T06:29:46;18.40;99.90
16829;DHT22;8531;48.078;11.968;2023-07-29T06:32:12;18.30;99.90
16829;DHT22;8531;48.078;11.968;2023-07-29T06:34:37;18.40;99.90
16829;DHT22;8531;48.078;11.968;2023-07-29T06:37:03;18.50;99.90
16829;DHT22;8531;48.078;11.968;2023-07-29T06:39:29;18.50;99.90
16829;DHT22;8531;48.078;11.968;2023-07-29T06:41:54;18.50;99.90
16829;DHT22;8531;48.078;11.968;2023-07-29T06:44:20;18.40;99.90
16829;DHT22;8531;48.078;11.968;2023-07-29T06:46:46;18.30;99.90
16829;DHT22;8531;48.078;11.968;2023-07-29T06:49:12;18.30;99.90
16829;DHT22;8531;48.078;11.968;2023-07-29T06:51:37;18.20;99.90
16829;DHT22;8531;48.078;11.968;2023-07-29T06:54:03;18.10;99.90
16829;DHT22;8531;48.078;11.968;2023-07-29T06:56:29;18.10;99.90
16829;DHT22;8531;48.078;11.968;2023-07-29T06:58:54;18.10;99.90
16829;DHT22;8531;48.078;11.968;2023-07-29T07:01:20;18.10;99.90
16829;DHT22;8531;48.078;11.968;2023-07-29T07:03:46;18.10;99.90
16829;DHT22;8531;48.078;11.968;2023-07-29T07:06:11;18.30;99.90
16829;DHT22;8531;48.078;11.968;2023-07-29T07:08:37;18.40;99.90
16829;DHT22;8531;48.078;11.968;2023-07-29T07:11:03;18.40;99.90
16829;DHT22;8531;48.078;11.968;2023-07-29T07:13:28;18.50;99.90
16829;DHT22;8531;48.078;11.968;2023-07-29T07:15:55;18.60;99.90
16829;DHT22;8531;48.078;11.968;2023-07-29T07:18:21;18.50;99.90
16829;DHT22;8531;48.078;11.968;2023-07-29T07:20:50;18.50;99.90
16829;DHT22;8531;48.078;11.968;2023-07-29T07:23:16;18.40;99.90
16829;DHT22;8531;48.078;11.968;2023-07-29T07:25:42;18.20;99.90
16829;DHT22;8531;48.078;11.968;2023-07-29T07:28:08;18.20;99.90
16829;DHT22;8531;48.078;11.968;2023-07-29T07:30:35;18.20;99.90
16829;DHT22;8531;48.078;11.968;2023-07-29T07:33:01;18.20;99.90
16829;DHT22;8531;48.078;11.968;2023-07-29T07:35:26;18.20;99.90
16829;DHT22;8531;48.078;11.968;2023-07-29T07:37:52;18.20;99.90
16829;DHT22;8531;48.078;11.968;2023-07-29T07:40:18;18.20;99.90
16829;DHT22;8531;48.078;11.968;2023-07-29T07:42:43;18.30;99.90
16829;DHT22;8531;48.078;11.968;2023-07-29T07:45:09;18.30;99.90
16829;DHT22;8531;48.078;11.968;2023-07-29T07:47:35;18.40;99.90
16829;DHT22;8531;48.078;11.968;2023-07-29T07:50:00;18.50;99.90
16829;DHT22;8531;48.078;11.968;2023-07-29T07:52:26;18.50;99.90
16829;DHT22;8531;48.078;11.968;2023-07-29T07:54:54;18.60;99.90
16829;DHT22;8531;48.078;11.968;2023-07-29T07:57:23;18.60;99.90
16829;DHT22;8531;48.078;11.968;2023-07-29T07:59:48;18.70;99.90
16829;DHT22;8531;48.078;11.968;2023-07-29T08:02:14;18.70;99.90
16829;DHT22;8531;48.078;11.968;2023-07-29T08:04:40;18.60;99.90
16829;DHT22;8531;48.078;11.968;2023-07-29T08:07:05;18.70;99.90
16829;DHT22;8531;48.078;11.968;2023-07-29T08:09:31;18.70;99.90
16829;DHT22;8531;48.078;11.968;2023-07-29T08:11:57;18.70;99.90
16829;DHT22;8531;48.078;11.968;2023-07-29T08:14:23;18.70;99.90
16829;DHT22;8531;48.078;11.968;2023-07-29T08:16:48;18.70;99.90
16829;DHT22;8531;48.078;11.968;2023-07-29T08:19:14;18.70;99.90
16829;DHT22;8531;48.078;11.968;2023-07-29T08:21:40;18.70;99.90
16829;DHT22;8531;48.078;11.968;2023-07-29T08:24:05;18.70;99.90
16829;DHT22;8531;48.078;11.968;2023-07-29T08:26:32;18.70;99.90
16829;DHT22;8531;48.078;11.968;2023-07-29T08:28:58;18.80;99.90
16829;DHT22;8531;48.078;11.968;2023-07-29T08:31:24;18.80;99.90
16829;DHT22;8531;48.078;11.968;2023-07-29T08:33:49;18.80;99.90
16829;DHT22;8531;48.078;11.968;2023-07-29T08:36:15;18.90;99.90
16829;DHT22;8531;48.078;11.968;2023-07-29T08:38:41;18.90;99.90
16829;DHT22;8531;48.078;11.968;2023-07-29T08:41:17;18.90;99.90
16829;DHT22;8531;48.078;11.968;2023-07-29T08:44:06;19.00;99.90
16829;DHT22;8531;48.078;11.968;2023-07-29T08:46:34;19.20;99.90
16829;DHT22;8531;48.078;11.968;2023-07-29T08:49:01;19.20;99.90
16829;DHT22;8531;48.078;11.968;2023-07-29T08:51:27;19.30;99.90
16829;DHT22;8531;48.078;11.968;2023-07-29T08:53:55;19.40;99.90
16829;DHT22;8531;48.078;11.968;2023-07-29T08:56:21;19.40;99.90
16829;DHT22;8531;48.078;11.968;2023-07-29T08:58:47;19.40;99.90
16829;DHT22;8531;48.078;11.968;2023-07-29T09:01:14;19.30;99.90
16829;DHT22;8531;48.078;11.968;2023-07-29T09:03:41;19.30;99.90
16829;DHT22;8531;48.078;11.968;2023-07-29T09:06:07;19.20;99.90
16829;DHT22;8531;48.078;11.968;2023-07-29T09:08:34;19.30;99.90
16829;DHT22;8531;48.078;11.968;2023-07-29T09:11:00;19.30;99.90
16829;DHT22;8531;48.078;11.968;2023-07-29T09:13:26;19.30;99.90
16829;DHT22;8531;48.078;11.968;2023-07-29T09:15:57;19.40;99.90
16829;DHT22;8531;48.078;11.968;2023-07-29T09:18:23;19.50;99.90
16829;DHT22;8531;48.078;11.968;2023-07-29T09:20:51;19.60;99.90
16829;DHT22;8531;48.078;11.968;2023-07-29T09:23:16;19.70;99.90
16829;DHT22;8531;48.078;11.968;2023-07-29T09:25:42;19.80;99.90
16829;DHT22;8531;48.078;11.968;2023-07-29T09:28:11;19.90;99.90
16829;DHT22;8531;48.078;11.968;2023-07-29T09:30:40;19.90;99.90
16829;DHT22;8531;48.078;11.968;2023-07-29T09:33:08;20.00;99.90
16829;DHT22;8531;48.078;11.968;2023-07-29T09:35:35;20.20;99.90
16829;DHT22;8531;48.078;11.968;2023-07-29T09:38:02;20.30;99.90
16829;DHT22;8531;48.078;11.968;2023-07-29T09:40:37;20.50;99.90
16829;DHT22;8531;48.078;11.968;2023-07-29T09:43:03;20.70;99.90
16829;DHT22;8531;48.078;11.968;2023-07-29T09:45:29;20.70;99.90
16829;DHT22;8531;48.078;11.968;2023-07-29T09:47:57;20.70;99.90
16829;DHT22;8531;48.078;11.968;2023-07-29T09:50:24;20.70;99.90
16829;DHT22;8531;48.078;11.968;2023-07-29T09:52:51;20.70;99.90
16829;DHT22;8531;48.078;11.968;2023-07-29T09:55:19;21.00;99.90
16829;DHT22;8531;48.078;11.968;2023-07-29T09:57:45;21.40;99.90
16829;DHT22;8531;48.078;11.968;2023-07-29T10:00:11;21.60;99.90
16829;DHT22;8531;48.078;11.968;2023-07-29T10:02:41;21.90;99.90
16829;DHT22;8531;48.078;11.968;2023-07-29T10:05:08;21.90;99.90
16829;DHT22;8531;48.078;11.968;2023-07-29T10:07:38;22.00;99.90
16829;DHT22;8531;48.078;11.968;2023-07-29T10:10:05;22.30;99.90
16829;DHT22;8531;48.078;11.968;2023-07-29T10:12:31;22.50;99.90
16829;DHT22;8531;48.078;11.968;2023-07-29T10:15:05;22.60;99.90
16829;DHT22;8531;48.078;11.968;2023-07-29T10:17:36;22.80;99.90
16829;DHT22;8531;48.078;11.968;2023-07-29T10:20:08;23.10;99.90
16829;DHT22;8531;48.078;11.968;2023-07-29T10:22:39;23.30;99.90
16829;DHT22;8531;48.078;11.968;2023-07-29T10:25:15;23.20;99.90
16829;DHT22;8531;48.078;11.968;2023-07-29T10:27:47;22.70;99.90
16829;DHT22;8531;48.078;11.968;2023-07-29T10:30:14;23.20;99.90
16829;DHT22;8531;48.078;11.968;2023-07-29T10:32:42;23.40;99.90
16829;DHT22;8531;48.078;11.968;2023-07-29T10:35:14;23.70;99.90
16829;DHT22;8531;48.078;11.968;2023-07-29T10:37:40;23.90;99.90
16829;DHT22;8531;48.078;11.968;2023-07-29T10:40:09;24.30;99.90
16829;DHT22;8531;48.078;11.968;2023-07-29T10:42:36;24.70;99.90
16829;DHT22;8531;48.078;11.968;2023-07-29T10:47:43;25.40;99.90
16829;DHT22;8531;48.078;11.968;2023-07-29T10:50:20;25.50;99.90
16829;DHT22;8531;48.078;11.968;2023-07-29T10:52:52;25.40;99.90
16829;DHT22;8531;48.078;11.968;2023-07-29T10:55:28;25.50;99.90
16829;DHT22;8531;48.078;11.968;2023-07-29T10:58:13;25.40;99.90
16829;DHT22;8531;48.078;11.968;2023-07-29T11:00:41;25.30;99.90
16829;DHT22;8531;48.078;11.968;2023-07-29T11:03:09;25.50;99.90
16829;DHT22;8531;48.078;11.968;2023-07-29T11:08:19;26.00;99.90
16829;DHT22;8531;48.078;11.968;2023-07-29T11:10:58;26.20;99.90
16829;DHT22;8531;48.078;11.968;2023-07-29T11:13:26;26.00;99.90
16829;DHT22;8531;48.078;11.968;2023-07-29T11:15:54;26.00;99.90
16829;DHT22;8531;48.078;11.968;2023-07-29T11:18:20;26.10;99.90
16829;DHT22;8531;48.078;11.968;2023-07-29T11:20:46;26.00;99.90
16829;DHT22;8531;48.078;11.968;2023-07-29T11:23:16;26.00;99.90
16829;DHT22;8531;48.078;11.968;2023-07-29T11:25:42;26.10;99.90
16829;DHT22;8531;48.078;11.968;2023-07-29T11:28:07;26.10;99.90
16829;DHT22;8531;48.078;11.968;2023-07-29T11:30:33;25.90;99.90
16829;DHT22;8531;48.078;11.968;2023-07-29T11:32:59;25.70;99.90
16829;DHT22;8531;48.078;11.968;2023-07-29T11:35:25;25.80;99.90
16829;DHT22;8531;48.078;11.968;2023-07-29T11:37:53;26.00;99.90
16829;DHT22;8531;48.078;11.968;2023-07-29T11:40:21;26.30;99.90
16829;DHT22;8531;48.078;11.968;2023-07-29T11:42:48;26.60;99.90
16829;DHT22;8531;48.078;11.968;2023-07-29T11:45:16;27.00;99.90
16829;DHT22;8531;48.078;11.968;2023-07-29T11:47:42;27.20;99.90
16829;DHT22;8531;48.078;11.968;2023-07-29T11:50:10;26.90;99.90
16829;DHT22;8531;48.078;11.968;2023-07-29T11:52:37;26.70;99.90
16829;DHT22;8531;48.078;11.968;2023-07-29T11:55:04;26.30;99.90
16829;DHT22;8531;48.078;11.968;2023-07-29T11:57:31;26.00;99.90
16829;DHT22;8531;48.078;11.968;2023-07-29T11:59:57;25.60;99.90
16829;DHT22;8531;48.078;11.968;2023-07-29T12:02:24;25.30;99.90
16829;DHT22;8531;48.078;11.968;2023-07-29T12:04:51;25.10;99.90
16829;DHT22;8531;48.078;11.968;2023-07-29T12:07:17;25.10;99.90
16829;DHT22;8531;48.078;11.968;2023-07-29T12:09:45;25.10;99.90
16829;DHT22;8531;48.078;11.968;2023-07-29T12:12:11;25.40;99.90
16829;DHT22;8531;48.078;11.968;2023-07-29T12:14:37;25.50;99.90
16829;DHT22;8531;48.078;11.968;2023-07-29T12:17:05;25.70;99.90
16829;DHT22;8531;48.078;11.968;2023-07-29T12:19:32;26.00;99.90
16829;DHT22;8531;48.078;11.968;2023-07-29T12:21:58;25.70;99.90
16829;DHT22;8531;48.078;11.968;2023-07-29T12:24:24;26.00;99.90
16829;DHT22;8531;48.078;11.968;2023-07-29T12:26:50;26.20;99.90
16829;DHT22;8531;48.078;11.968;2023-07-29T12:29:18;25.90;99.90
16829;DHT22;8531;48.078;11.968;2023-07-29T12:31:48;25.80;99.90
16829;DHT22;8531;48.078;11.968;2023-07-29T12:34:20;26.30;99.90
16829;DHT22;8531;48.078;11.968;2023-07-29T12:36:48;26.80;99.90
16829;DHT22;8531;48.078;11.968;2023-07-29T12:41:47;27.00;99.90
16829;DHT22;8531;48.078;11.968;2023-07-29T12:44:13;26.70;99.90
16829;DHT22;8531;48.078;11.968;2023-07-29T12:46:39;26.60;99.90
16829;DHT22;8531;48.078;11.968;2023-07-29T12:49:05;26.60;99.90
16829;DHT22;8531;48.078;11.968;2023-07-29T12:51:31;27.20;99.90
16829;DHT22;8531;48.078;11.968;2023-07-29T12:53:57;27.40;99.90
16829;DHT22;8531;48.078;11.968;2023-07-29T12:56:22;27.50;99.90
16829;DHT22;8531;48.078;11.968;2023-07-29T12:58:48;27.50;99.90
16829;DHT22;8531;48.078;11.968;2023-07-29T13:01:15;27.40;99.90
16829;DHT22;8531;48.078;11.968;2023-07-29T13:03:44;27.30;99.90
16829;DHT22;8531;48.078;11.968;2023-07-29T13:06:10;26.60;99.90
16829;DHT22;8531;48.078;11.968;2023-07-29T13:08:37;26.50;99.90
16829;DHT22;8531;48.078;11.968;2023-07-29T13:11:03;25.90;99.90
16829;DHT22;8531;48.078;11.968;2023-07-29T13:13:30;25.70;99.90
16829;DHT22;8531;48.078;11.968;2023-07-29T13:15:56;25.40;99.90
16829;DHT22;8531;48.078;11.968;2023-07-29T13:18:22;25.30;99.90
16829;DHT22;8531;48.078;11.968;2023-07-29T13:20:50;24.70;99.90
16829;DHT22;8531;48.078;11.968;2023-07-29T13:23:16;24.80;99.90
16829;DHT22;8531;48.078;11.968;2023-07-29T13:25:42;24.90;99.90
16829;DHT22;8531;48.078;11.968;2023-07-29T13:28:09;24.80;99.90
16829;DHT22;8531;48.078;11.968;2023-07-29T13:30:35;23.70;99.90
16829;DHT22;8531;48.078;11.968;2023-07-29T13:33:01;23.30;99.90
16829;DHT22;8531;48.078;11.968;2023-07-29T13:35:29;22.50;99.90
16829;DHT22;8531;48.078;11.968;2023-07-29T13:37:55;21.90;99.90
16829;DHT22;8531;48.078;11.968;2023-07-29T13:40:20;22.00;99.90
16829;DHT22;8531;48.078;11.968;2023-07-29T13:42:46;21.70;99.90
16829;DHT22;8531;48.078;11.968;2023-07-29T13:45:12;21.50;99.90
16829;DHT22;8531;48.078;11.968;2023-07-29T13:47:37;21.10;99.90
16829;DHT22;8531;48.078;11.968;2023-07-29T13:50:03;20.60;99.90
16829;DHT22;8531;48.078;11.968;2023-07-29T13:52:29;20.20;99.90
16829;DHT22;8531;48.078;11.968;2023-07-29T13:54:55;20.20;99.90
16829;DHT22;8531;48.078;11.968;2023-07-29T13:57:21;20.40;99.90
16829;DHT22;8531;48.078;11.968;2023-07-29T13:59:46;20.60;99.90
16829;DHT22;8531;48.078;11.968;2023-07-29T14:02:13;20.70;99.90
16829;DHT22;8531;48.078;11.968;2023-07-29T14:04:38;20.80;99.90
16829;DHT22;8531;48.078;11.968;2023-07-29T14:07:04;21.00;99.90
16829;DHT22;8531;48.078;11.968;2023-07-29T14:09:30;21.20;99.90
16829;DHT22;8531;48.078;11.968;2023-07-29T14:11:55;21.30;99.90
16829;DHT22;8531;48.078;11.968;2023-07-29T14:14:21;21.40;99.90
16829;DHT22;8531;48.078;11.968;2023-07-29T14:16:47;21.50;99.90
16829;DHT22;8531;48.078;11.968;2023-07-29T14:19:13;21.50;99.90
16829;DHT22;8531;48.078;11.968;2023-07-29T14:21:38;21.60;99.90
16829;DHT22;8531;48.078;11.968;2023-07-29T14:24:05;21.70;99.90
16829;DHT22;8531;48.078;11.968;2023-07-29T14:26:31;21.70;99.90
16829;DHT22;8531;48.078;11.968;2023-07-29T14:28:56;21.80;99.90
16829;DHT22;8531;48.078;11.968;2023-07-29T14:31:22;21.90;99.90
16829;DHT22;8531;48.078;11.968;2023-07-29T14:33:48;21.90;99.90
16829;DHT22;8531;48.078;11.968;2023-07-29T14:36:18;21.90;99.90
16829;DHT22;8531;48.078;11.968;2023-07-29T14:38:43;21.90;99.90
16829;DHT22;8531;48.078;11.968;2023-07-29T14:41:09;21.90;99.90
16829;DHT22;8531;48.078;11.968;2023-07-29T14:43:35;21.90;99.90
16829;DHT22;8531;48.078;11.968;2023-07-29T14:46:01;21.90;99.90
16829;DHT22;8531;48.078;11.968;2023-07-29T14:48:27;21.90;99.90
16829;DHT22;8531;48.078;11.968;2023-07-29T14:50:53;21.90;99.90
16829;DHT22;8531;48.078;11.968;2023-07-29T14:53:19;21.90;99.90
16829;DHT22;8531;48.078;11.968;2023-07-29T14:55:45;21.90;99.90
16829;DHT22;8531;48.078;11.968;2023-07-29T14:58:10;21.70;99.90
16829;DHT22;8531;48.078;11.968;2023-07-29T15:00:36;21.70;99.90
16829;DHT22;8531;48.078;11.968;2023-07-29T15:03:02;21.60;99.90
16829;DHT22;8531;48.078;11.968;2023-07-29T15:05:28;21.50;99.90
16829;DHT22;8531;48.078;11.968;2023-07-29T15:07:54;21.40;99.90
16829;DHT22;8531;48.078;11.968;2023-07-29T15:10:20;21.30;99.90
16829;DHT22;8531;48.078;11.968;2023-07-29T15:12:47;21.30;99.90
16829;DHT22;8531;48.078;11.968;2023-07-29T15:15:12;21.30;99.90
16829;DHT22;8531;48.078;11.968;2023-07-29T15:17:38;21.20;99.90
16829;DHT22;8531;48.078;11.968;2023-07-29T15:20:04;21.20;99.90
16829;DHT22;8531;48.078;11.968;2023-07-29T15:22:30;21.20;99.90
16829;DHT22;8531;48.078;11.968;2023-07-29T15:24:59;21.20;99.90
16829;DHT22;8531;48.078;11.968;2023-07-29T15:27:29;21.20;99.90
16829;DHT22;8531;48.078;11.968;2023-07-29T15:29:55;21.20;99.90
16829;DHT22;8531;48.078;11.968;2023-07-29T15:32:21;21.10;99.90
16829;DHT22;8531;48.078;11.968;2023-07-29T15:34:48;21.10;99.90
16829;DHT22;8531;48.078;11.968;2023-07-29T15:37:13;21.10;99.90
16829;DHT22;8531;48.078;11.968;2023-07-29T15:39:39;21.10;99.90
16829;DHT22;8531;48.078;11.968;2023-07-29T15:42:05;21.10;99.90